Latest Coastal Weather Observations for Kiama

IDN60701

Issued at 8:51 pm EDT Sunday 7 March 2021 (issued every 10 minutes, with the page automatically refreshed every 10 minutes)

About coastal observations | Map of coastal stations | Coastal observations for NSW | Marine services | Other Formats
Station Details ID: 068242 Name: KIAMA (BOMBO HEADLAND) Lat: -34.65 Lon: 150.86 Height: 15.5 m
Data from the previous 72 hours. | See also: Recent months at Kiama
Date/Time
EDT
Wind Sea
Height
m
Swell Vis
km
Cloud Weather Temp
°C
Press
MSL
hPa
Rain since
9am
mm
Dir  Spd
kts
Gust
kts
Height
m
Period
s
Dir
07/08:30pm N 10 16 - - - - - - - 22.2 - 0.0
07/08:00pm NNE 13 18 - - - - - - - 22.1 - 0.0
07/07:30pm NNE 12 18 - - - - - - - 22.1 - 0.0
07/07:00pm NNE 13 19 - - - - - - - 22.1 - 0.0
07/06:30pm NNE 12 17 - - - - - - - 22.4 - 0.0
07/06:00pm NNE 12 17 - - - - - - - 22.5 - 0.0
07/05:30pm NNE 11 16 - - - - - - - 22.9 - 0.0
07/05:00pm NNE 12 18 - - - - - - - 23.0 - 0.0
07/04:30pm NNE 13 17 - - - - - - - 23.0 - 0.0
07/04:00pm NNE 12 17 - - - - - - - 23.1 - 0.0
07/03:30pm NE 13 16 - - - - - - - 23.0 - 0.0
07/03:00pm NNE 13 17 - - - - - - - 23.1 - 0.0
07/02:30pm NNE 12 17 - - - - - - - 23.3 - 0.0
07/02:00pm NE 12 15 - - - - - - - 23.4 - 0.0
07/01:30pm NE 12 15 - - - - - - - 23.5 - 0.0
07/01:00pm NE 10 14 - - - - - - - 23.4 - 0.0
07/12:30pm NE 8 11 - - - - - - - 22.8 - 0.0
07/12:00pm NE 7 9 - - - - - - - 22.7 - 0.0
07/11:30am NE 6 8 - - - - - - - 22.6 - 0.0
07/11:00am NE 6 7 - - - - - - - 22.6 - 0.0
07/10:30am NE 3 5 - - - - - - - 22.0 - 0.0
07/10:00am NE 3 4 - - - - - - - 21.5 - 0.0
07/09:30am E 2 3 - - - - - - - 21.2 - 0.0
07/09:00am S 2 3 - - - - - - - 20.1 - 0.0
07/08:30am W 3 5 - - - - - - - 18.9 - 0.0
07/08:00am W 4 5 - - - - - - - 17.2 - 0.0
07/07:30am W 5 6 - - - - - - - 16.0 - 0.0
07/07:00am W 5 6 - - - - - - - 15.7 - 0.0
07/06:30am W 5 6 - - - - - - - 15.6 - 0.0
07/06:00am W 3 3 - - - - - - - 16.2 - 0.0
07/05:30am W 3 4 - - - - - - - 16.4 - 0.0
07/05:00am SW 3 5 - - - - - - - 17.2 - 0.0
07/04:30am W 4 4 - - - - - - - 16.9 - 0.0
07/04:00am W 3 4 - - - - - - - 17.4 - 0.0
07/03:30am SW 3 4 - - - - - - - 18.3 - 0.0
07/03:00am WSW 4 5 - - - - - - - 18.3 - 0.0
07/02:30am SW 4 5 - - - - - - - 18.4 - 0.0
07/02:00am SW 3 6 - - - - - - - 18.6 - 0.0
07/01:30am W 3 5 - - - - - - - 18.4 - 0.0
07/01:00am SW 3 5 - - - - - - - 18.8 - 0.0
07/12:30am SW 5 8 - - - - - - - 18.9 - 0.0
07/12:00am SW 5 8 - - - - - - - 19.1 - 0.0
 
Date/Time
EDT
Wind Sea
Height
m
Swell Vis
km
Cloud Weather Temp
°C
Press
MSL
hPa
Rain since
9am
mm
Dir  Spd
kts
Gust
kts
Height
m
Period
s
Dir
06/11:30pm SSW 7 9 - - - - - - - 19.1 - 0.0
06/11:00pm SW 5 7 - - - - - - - 18.9 - 0.0
06/10:30pm SSW 5 6 - - - - - - - 19.3 - 0.0
06/10:00pm SSW 7 9 - - - - - - - 19.3 - 0.0
06/09:30pm SSW 8 11 - - - - - - - 19.4 - 0.0
06/09:00pm S 8 12 - - - - - - - 19.6 - 0.0
06/08:30pm SSW 8 10 - - - - - - - 19.4 - 0.0
06/08:00pm S 10 14 - - - - - - - 19.6 - 0.0
06/07:30pm S 9 13 - - - - - - - 19.4 - 0.0
06/07:00pm S 10 15 - - - - - - - 19.8 - 0.0
06/06:30pm S 12 15 - - - - - - - 19.7 - 0.0
06/06:00pm S 12 15 - - - - - - - 20.1 - 0.0
06/05:30pm SSE 14 17 - - - - - - - 20.1 - 0.0
06/05:00pm SSE 14 17 - - - - - - - 19.9 - 0.0
06/04:30pm S 14 18 - - - - - - - 20.1 - 0.0
06/04:00pm SSE 14 19 - - - - - - - 20.6 - 0.0
06/03:30pm S 13 18 - - - - - - - 20.0 - 0.0
06/03:00pm SSE 14 18 - - - - - - - 20.5 - 0.0
06/02:30pm SSE 15 18 - - - - - - - 20.2 - 0.0
06/02:00pm S 13 15 - - - - - - - 20.6 - 0.0
06/01:30pm S 11 15 - - - - - - - 20.3 - 0.0
06/01:00pm S 12 17 - - - - - - - 20.2 - 0.0
06/12:30pm S 12 15 - - - - - - - 20.2 - 0.0
06/12:00pm S 12 17 - - - - - - - 19.8 - 0.0
06/11:30am S 14 18 - - - - - - - 19.5 - 0.0
06/11:00am S 14 17 - - - - - - - 19.3 - 0.0
06/10:30am SSW 13 17 - - - - - - - 19.3 - 0.0
06/10:00am SSW 10 15 - - - - - - - 19.1 - 0.0
06/09:30am SW 10 14 - - - - - - - 18.7 - 0.0
06/09:00am SW 8 12 - - - - - - - 17.9 - 0.6
06/08:30am SW 8 13 - - - - - - - 17.4 - 0.6
06/08:00am SW 9 11 - - - - - - - 17.2 - 0.6
06/07:30am SW 8 11 - - - - - - - 16.6 - 0.6
06/07:00am SW 8 13 - - - - - - - 16.6 - 0.6
06/06:30am SW 9 13 - - - - - - - 17.3 - 0.6
06/06:00am S 17 24 - - - - - - - 18.7 - 0.6
06/05:51am SSW 14 24 - - - - - - - 18.5 - 0.6
06/05:30am SW 7 10 - - - - - - - 17.5 - 0.6
06/05:00am SW 7 10 - - - - - - - 16.9 - 0.6
06/04:30am SW 8 13 - - - - - - - 17.0 - 0.6
06/04:00am SSW 12 15 - - - - - - - 17.5 - 0.6
06/03:30am SW 9 16 - - - - - - - 17.2 - 0.6
06/03:00am SW 7 9 - - - - - - - 16.9 - 0.6
06/02:30am SSW 9 10 - - - - - - - 16.6 - 0.6
06/02:00am SSW 10 12 - - - - - - - 16.3 - 0.6
06/01:30am SSW 11 14 - - - - - - - 16.1 - 0.6
06/01:00am SSW 13 18 - - - - - - - 16.6 - 0.2
06/12:30am SSW 13 16 - - - - - - - 18.0 - 0.0
06/12:00am SSW 10 17 - - - - - - - 18.5 - 0.0
 
Date/Time
EDT
Wind Sea
Height
m
Swell Vis
km
Cloud Weather Temp
°C
Press
MSL
hPa
Rain since
9am
mm
Dir  Spd
kts
Gust
kts
Height
m
Period
s
Dir
05/11:30pm S 10 17 - - - - - - - 18.5 - 0.0
05/11:00pm S 13 20 - - - - - - - 18.6 - 0.0
05/10:30pm S 12 19 - - - - - - - 19.1 - 0.0
05/10:00pm S 13 19 - - - - - - - 19.7 - 0.0
05/09:30pm S 14 20 - - - - - - - 19.7 - 0.0
05/09:00pm S 15 20 - - - - - - - 19.6 - 0.0
05/08:30pm S 14 18 - - - - - - - 19.7 - 0.0
05/08:00pm S 14 19 - - - - - - - 19.8 - 0.0
05/07:30pm S 15 25 - - - - - - - 19.7 - 0.0
05/07:00pm S 14 20 - - - - - - - 19.8 - 0.0
05/06:52pm S 15 26 - - - - - - - 19.7 - 0.0
05/06:30pm SSE 15 19 - - - - - - - 19.9 - 0.0
05/06:00pm S 14 18 - - - - - - - 20.1 - 0.0
05/05:30pm S 16 21 - - - - - - - 20.2 - 0.0
05/05:00pm S 16 20 - - - - - - - 20.3 - 0.0
05/04:30pm S 17 21 - - - - - - - 20.4 - 0.0
05/04:00pm S 17 22 - - - - - - - 20.4 - 0.0
05/03:30pm S 19 26 - - - - - - - 20.3 - 0.0
05/03:22pm S 19 29 - - - - - - - 20.6 - 0.0
05/03:00pm S 22 27 - - - - - - - 20.2 - 0.0
05/02:30pm S 20 24 - - - - - - - 20.4 - 0.0
05/02:00pm S 19 26 - - - - - - - 20.1 - 0.0
05/01:30pm S 17 23 - - - - - - - 20.4 - 0.0
05/01:00pm S 18 23 - - - - - - - 20.6 - 0.0
05/12:30pm S 19 26 - - - - - - - 20.1 - 0.0
05/12:00pm S 19 26 - - - - - - - 19.9 - 0.0
05/11:30am S 21 27 - - - - - - - 19.7 - 0.0
05/11:00am S 21 27 - - - - - - - 19.7 - 0.0
05/10:30am S 21 28 - - - - - - - 19.9 - 0.0
05/10:00am S 20 26 - - - - - - - 20.4 - 0.0
05/09:30am S 20 27 - - - - - - - 20.6 - 0.0
05/09:28am S 18 26 - - - - - - - 20.8 - 0.0
05/09:00am SSW 14 20 - - - - - - - 21.7 - 0.0
05/08:30am SSW 12 17 - - - - - - - 21.4 - 0.0
05/08:00am SW 7 9 - - - - - - - 21.0 - 0.0
05/07:30am SW 5 7 - - - - - - - 19.8 - 0.0
05/07:00am SW 6 8 - - - - - - - 19.5 - 0.0
05/06:30am SW 7 10 - - - - - - - 19.8 - 0.0
05/06:00am SW 7 10 - - - - - - - 19.6 - 0.0
05/05:30am SW 8 12 - - - - - - - 19.5 - 0.0
05/05:00am WSW 7 10 - - - - - - - 19.6 - 0.0
05/04:30am SW 8 11 - - - - - - - 19.8 - 0.0
05/04:00am SW 11 15 - - - - - - - 20.1 - 0.0
05/03:30am WSW 8 11 - - - - - - - 20.1 - 0.0
05/03:00am WSW 6 12 - - - - - - - 20.6 - 0.0
05/02:30am SW 11 17 - - - - - - - 21.2 - 0.0
05/02:00am SW 7 15 - - - - - - - 21.2 - 0.0
05/01:30am WSW 8 13 - - - - - - - 21.6 - 0.0
05/01:00am SW 12 21 - - - - - - - 22.2 - 0.0
05/12:30am SW 9 18 - - - - - - - 22.1 - 0.0
05/12:00am SW 9 12 - - - - - - - 22.0 - 0.0
 
Date/Time
EDT
Wind Sea
Height
m
Swell Vis
km
Cloud Weather Temp
°C
Press
MSL
hPa
Rain since
9am
mm
Dir  Spd
kts
Gust
kts
Height
m
Period
s
Dir
04/11:30pm SW 7 9 - - - - - - - 20.3 - 0.0
04/11:00pm SW 2 6 - - - - - - - 20.2 - 0.0
04/10:30pm N 5 7 - - - - - - - 20.0 - 0.0
04/10:00pm W 4 5 - - - - - - - 19.6 - 0.0
04/09:30pm WSW 4 5 - - - - - - - 19.9 - 0.0
04/09:00pm NW 4 6 - - - - - - - 20.5 - 0.0

Other formats

Comma delimited format used in spreadsheet applications
http://www.bom.gov.au/fwo/IDN60701/IDN60701.95749.axf

JavaScript Object Notation format (JSON) in row-major order
http://www.bom.gov.au/fwo/IDN60701/IDN60701.95749.json

Data quality

Most of these data are generated automatically and are frequently updated. Quality checks on data are not normally performed. It is possible for incorrect values to appear. Refer to information at About Latest Weather Observations and please check the disclaimer before using these data.